Time;durP1;ratioP1;P1;durP2;ratioP2;P2;SDS_P1;SDS_P2;PMS_P1;PMS_P2;Temp;Humidity;BMP_temperature;BMP_pressure;BME280_temperature;BME280_humidity;BME280_pressure;Samples;Min_cycle;Max_cycle;Signal;HPM_P1;HPM_P2
2022/10/15 00:03:08;;;;;;;70.33;39.33;;;;;;;13.03;98.86;100356.52;5095573;58;1143203;-76
2022/10/15 00:08:14;;;;;;;65.40;38.33;;;;;;;12.96;99.01;100353.59;5125400;57;1143555;-75
2022/10/15 00:13:20;;;;;;;65.33;38.67;;;;;;;12.84;99.82;100346.70;5092125;58;1143181;-75
2022/10/15 00:18:27;;;;;;;66.67;39.80;;;;;;;12.79;100.00;100345.46;5169604;56;1143166;-76
2022/10/15 00:23:33;;;;;;;67.43;39.90;;;;;;;12.72;100.00;100330.56;5092101;56;1145651;-75
2022/10/15 00:28:39;;;;;;;66.63;38.77;;;;;;;12.67;100.00;100330.16;5206203;56;1145275;-76
2022/10/15 00:33:46;;;;;;;66.60;36.30;;;;;;;12.64;100.00;100331.27;5228927;56;1145242;-74
2022/10/15 00:38:52;;;;;;;67.83;38.10;;;;;;;12.66;100.00;100335.11;5228852;56;1145215;-76
2022/10/15 00:44:02;;;;;;;62.13;39.53;;;;;;;12.75;100.00;100329.45;5270853;55;1145364;-76
2022/10/15 00:49:27;;;;;;;69.70;37.83;;;;;;;12.74;100.00;100333.09;5317932;55;1145233;-76
2022/10/15 00:54:41;;;;;;;65.00;36.93;;;;;;;12.64;100.00;100330.42;5317727;55;1145222;-76
2022/10/15 00:59:50;;;;;;;63.50;35.87;;;;;;;12.54;100.00;100324.23;5287442;55;1145483;-76
2022/10/15 01:04:57;;;;;;;61.00;35.00;;;;;;;12.49;100.00;100318.03;5228860;56;1145248;-77
2022/10/15 01:10:04;;;;;;;60.93;36.37;;;;;;;12.51;100.00;100310.78;5228718;56;1145248;-74
2022/10/15 01:15:26;;;;;;;59.13;32.83;;;;;;;12.47;100.00;100308.05;5228872;56;1145252;-75
2022/10/15 01:20:56;;;;;;;51.40;32.13;;;;;;;12.42;100.00;100302.30;5228892;55;1145220;-77
2022/10/15 01:26:31;;;;;;;60.10;33.87;;;;;;;12.43;100.00;100301.81;5229091;56;1143167;-75
2022/10/15 01:31:53;;;;;;;54.98;33.70;;;;;;;12.39;100.00;100298.59;5227452;55;1143218;-76
2022/10/15 01:37:14;;;;;;;47.03;30.08;;;;;;;12.29;100.00;100286.64;5228049;55;1143132;-76
2022/10/15 01:42:37;;;;;;;47.10;29.10;;;;;;;12.23;100.00;100277.05;5242615;55;1145374;-76
2022/10/15 01:47:50;;;;;;;;;;;;;;;12.16;100.00;100268.81;5240447;55;1145227;-76
2022/10/15 01:52:57;;;;;;;48.87;31.17;;;;;;;12.16;100.00;100264.00;5260001;55;978395;-76
2022/10/15 01:58:05;;;;;;;54.53;32.98;;;;;;;12.13;100.00;100260.29;5224971;56;1143165;-76
2022/10/15 02:03:13;;;;;;;47.93;30.67;;;;;;;12.08;100.00;100256.70;5281521;55;1145319;-76
2022/10/15 02:08:39;;;;;;;56.83;29.83;;;;;;;12.04;100.00;100253.16;5318330;55;1145213;-76
2022/10/15 02:14:09;;;;;;;49.67;31.63;;;;;;;12.03;100.00;100246.17;5131198;56;1145454;-76
2022/10/15 02:19:26;;;;;;;50.87;31.13;;;;;;;11.99;100.00;100242.95;5057920;57;1145231;-75
2022/10/15 02:24:41;;;;;;;40.80;28.30;;;;;;;11.98;100.00;100235.97;5224969;56;1145219;-75
2022/10/15 02:29:51;;;;;;;50.97;29.00;;;;;;;11.97;100.00;100237.78;5229226;56;1145273;-74
2022/10/15 02:34:57;;;;;;;45.53;28.83;;;;;;;12.02;100.00;100237.39;5229304;56;1145229;-76
2022/10/15 02:40:04;;;;;;;47.83;30.50;;;;;;;12.00;100.00;100223.42;5229107;56;1145445;-76
2022/10/15 02:45:10;;;;;;;45.67;28.23;;;;;;;11.98;100.00;100220.06;5292284;55;1145521;-75
2022/10/15 02:50:18;;;;;;;41.40;25.90;;;;;;;11.91;100.00;100220.27;5147164;56;1145285;-76
2022/10/15 02:55:24;;;;;;;40.70;26.27;;;;;;;11.87;100.00;100209.58;5143190;57;1145210;-75
2022/10/15 03:00:30;;;;;;;43.90;27.13;;;;;;;11.87;100.00;100209.58;5185054;56;1145226;-76
2022/10/15 03:05:36;;;;;;;44.20;28.70;;;;;;;11.86;100.00;100202.12;5174523;56;1145153;-76
2022/10/15 03:10:44;;;;;;;43.00;24.17;;;;;;;11.81;100.00;100188.91;5138679;57;1145241;-76
2022/10/15 03:15:50;;;;;;;38.30;24.27;;;;;;;11.82;100.00;100187.94;5191409;56;1145239;-75
2022/10/15 03:20:57;;;;;;;41.83;26.97;;;;;;;11.84;100.00;100184.19;5226142;56;1145390;-75
2022/10/15 03:26:05;;;;;;;40.37;25.07;;;;;;;11.88;100.00;100177.65;5288892;55;1143275;-74
2022/10/15 03:31:13;;;;;;;36.23;24.37;;;;;;;11.92;100.00;100184.81;5311964;55;1143362;-76
2022/10/15 03:36:19;;;;;;;41.20;23.90;;;;;;;11.90;100.00;100186.80;5305231;55;1143175;-76
2022/10/15 03:41:26;;;;;;;38.07;24.40;;;;;;;11.90;100.00;100178.36;5305327;55;1143239;-75
2022/10/15 03:46:33;;;;;;;39.37;24.00;;;;;;;11.87;100.00;100165.38;5304945;55;1143164;-75
2022/10/15 03:51:39;;;;;;;38.37;23.00;;;;;;;11.80;100.00;100162.06;5304652;55;1143186;-75
2022/10/15 03:56:47;;;;;;;32.33;20.63;;;;;;;11.78;100.00;100163.52;5233552;55;1143139;-76
2022/10/15 04:01:55;;;;;;;44.97;25.00;;;;;;;11.79;100.00;100165.68;5158895;56;1143317;-76
2022/10/15 04:07:01;;;;;;;39.83;25.03;;;;;;;11.79;100.00;100170.98;5143936;56;1143060;-75
2022/10/15 04:12:08;;;;;;;36.00;21.87;;;;;;;11.74;100.00;100166.08;5141741;56;1143155;-74
2022/10/15 04:17:15;;;;;;;34.43;22.17;;;;;;;11.72;100.00;100158.75;5234497;55;1143217;-75
2022/10/15 04:22:21;;;;;;;35.93;25.53;;;;;;;11.70;100.00;100158.03;5304730;55;1143116;-77
2022/10/15 04:27:29;;;;;;;36.23;23.97;;;;;;;11.67;100.00;100155.65;5241847;55;1143287;-74
2022/10/15 04:32:43;;;;;;;31.73;21.67;;;;;;;11.66;100.00;100158.43;5214914;55;1141094;-75
2022/10/15 04:37:50;;;;;;;35.20;22.10;;;;;;;11.67;100.00;100150.35;5068229;56;1141111;-77
2022/10/15 04:42:56;;;;;;;37.00;24.03;;;;;;;11.69;100.00;100152.38;5065982;57;1145125;-77
2022/10/15 04:48:02;;;;;;;42.62;26.23;;;;;;;11.75;100.00;100154.99;5068594;57;1145458;-76
2022/10/15 04:53:08;;;;;;;41.50;24.50;;;;;;;11.76;100.00;100146.95;5120813;57;1145199;-74
2022/10/15 04:58:15;;;;;;;41.87;25.30;;;;;;;11.79;100.00;100151.95;5204290;56;1145174;-77
2022/10/15 05:03:22;;;;;;;37.67;22.40;;;;;;;11.74;100.00;100146.20;5176417;56;1145365;-77
2022/10/15 05:08:32;;;;;;;35.90;22.53;;;;;;;11.75;100.00;100149.70;5161340;56;1145390;-74
2022/10/15 05:13:45;;;;;;;36.75;21.70;;;;;;;11.78;100.00;100156.89;5149668;57;1145227;-77
2022/10/15 05:18:58;;;;;;;31.30;22.50;;;;;;;11.83;100.00;100149.38;5065110;58;1145082;-75
2022/10/15 05:24:05;;;;;;;;;;;;;;;11.83;100.00;100137.95;5082930;57;1145143;-77
2022/10/15 05:29:27;;;;;;;37.53;21.93;;;;;;;11.83;100.00;100133.48;5102855;57;978438;-75
2022/10/15 05:34:33;;;;;;;33.03;21.33;;;;;;;11.81;100.00;100132.78;5203245;56;1143205;-77
2022/10/15 05:39:40;;;;;;;30.90;22.43;;;;;;;11.82;100.00;100134.46;5265193;55;1145169;-75
2022/10/15 05:44:47;;;;;;;34.50;22.07;;;;;;;11.85;100.00;100134.19;5215977;55;1145236;-74
2022/10/15 05:49:52;;;;;;;40.78;22.55;;;;;;;11.85;100.00;100131.54;5158660;56;1145523;-76
2022/10/15 05:55:00;;;;;;;31.10;20.43;;;;;;;11.87;100.00;100126.11;5157207;56;1145263;-75
2022/10/15 06:00:08;;;;;;;36.50;20.23;;;;;;;11.90;100.00;100131.98;5161481;56;1145114;-77
2022/10/15 06:05:16;;;;;;;30.70;21.23;;;;;;;11.94;100.00;100124.57;5138346;56;1145477;-77
2022/10/15 06:10:22;;;;;;;32.78;20.15;;;;;;;11.97;100.00;100141.05;5215474;55;1145222;-76
2022/10/15 06:15:27;;;;;;;37.05;19.90;;;;;;;11.99;100.00;100140.91;5165299;56;1145110;-77
2022/10/15 06:20:36;;;;;;;32.40;21.37;;;;;;;12.00;100.00;100147.88;5175690;55;1145236;-75
2022/10/15 06:25:41;;;;;;;48.73;24.17;;;;;;;12.02;100.00;100147.75;5176653;55;1145298;-76
2022/10/15 06:30:47;;;;;;;35.07;20.97;;;;;;;12.01;100.00;100154.86;5142494;57;1145224;-76
2022/10/15 06:35:52;;;;;;;34.07;20.37;;;;;;;12.04;100.00;100154.59;5140930;56;1145324;-76
2022/10/15 06:40:59;;;;;;;32.30;19.60;;;;;;;12.08;100.00;100153.81;5140790;56;1145210;-77
2022/10/15 06:46:06;;;;;;;34.53;20.63;;;;;;;12.11;100.00;100142.94;5218461;56;1145212;-76
2022/10/15 06:51:12;;;;;;;34.27;21.00;;;;;;;12.16;100.00;100140.72;5228070;56;1145253;-76
2022/10/15 06:56:19;;;;;;;30.83;20.40;;;;;;;12.20;100.00;100137.66;5227302;56;1145238;-75
2022/10/15 07:01:25;;;;;;;29.50;19.03;;;;;;;12.21;100.00;100142.00;5196359;56;1145165;-77
2022/10/15 07:06:31;;;;;;;35.50;21.40;;;;;;;12.26;100.00;100138.91;5184081;56;1145089;-76
2022/10/15 07:11:36;;;;;;;38.37;21.17;;;;;;;12.33;100.00;100157.27;5129175;57;1145462;-76
2022/10/15 07:16:44;;;;;;;36.07;20.37;;;;;;;12.33;100.00;100157.27;5186185;55;1145403;-76
2022/10/15 07:21:50;;;;;;;31.70;21.63;;;;;;;12.37;100.00;100163.14;5224878;56;1143073;-75
2022/10/15 07:26:56;;;;;;;35.40;20.20;;;;;;;12.42;100.00;100163.55;5225183;56;1143111;-75
2022/10/15 07:32:02;;;;;;;46.30;22.77;;;;;;;12.43;100.00;100167.39;5176366;56;1143341;-76
2022/10/15 07:37:08;;;;;;;32.07;20.43;;;;;;;12.43;100.00;100162.08;5129785;57;1143463;-76
2022/10/15 07:42:14;;;;;;;43.63;24.87;;;;;;;12.54;100.00;100167.72;5195715;56;1143300;-75
2022/10/15 07:47:19;;;;;;;39.17;23.77;;;;;;;12.62;100.00;100170.05;5213155;56;1143166;-77
2022/10/15 07:52:25;;;;;;;41.47;22.47;;;;;;;12.68;100.00;100165.97;5211703;56;1143329;-77
2022/10/15 07:57:31;;;;;;;38.13;23.17;;;;;;;12.72;100.00;100161.23;5127374;56;1143115;-77
2022/10/15 08:02:36;;;;;;;38.87;21.97;;;;;;;12.76;100.00;100153.34;5123788;57;1143150;-75
2022/10/15 08:07:42;;;;;;;39.40;23.40;;;;;;;12.86;100.00;100147.03;5057528;57;1143235;-76
2022/10/15 08:12:49;;;;;;;38.67;23.70;;;;;;;12.96;100.00;100147.86;5046118;57;1143214;-76
2022/10/15 08:17:54;;;;;;;38.37;23.23;;;;;;;12.98;100.00;100151.22;5163421;57;1143185;-77
2022/10/15 08:23:01;;;;;;;38.47;24.27;;;;;;;13.00;100.00;100147.06;5182780;57;1143148;-77
2022/10/15 08:28:09;;;;;;;38.50;24.73;;;;;;;13.05;100.00;100150.13;5192965;57;1143089;-77
2022/10/15 08:33:15;;;;;;;36.17;21.00;;;;;;;13.07;100.00;100149.50;5094578;58;1143247;-75
2022/10/15 08:38:21;;;;;;;35.23;24.80;;;;;;;13.12;100.00;100152.58;5027643;57;1143480;-75
2022/10/15 08:43:37;;;;;;;44.93;21.60;;;;;;;13.15;100.00;100158.93;5060400;58;1143231;-76
2022/10/15 08:48:52;;;;;;;36.93;22.13;;;;;;;13.14;100.00;100155.09;5092336;58;21703;-77
2022/10/15 08:54:02;;;;;;;33.10;21.40;;;;;;;13.18;100.00;100152.50;5069267;58;1140970;-75
2022/10/15 08:59:33;;;;;;;39.13;23.53;;;;;;;13.21;100.00;100161.52;5073063;58;1145183;-75
2022/10/15 09:04:49;;;;;;;36.10;24.07;;;;;;;13.23;100.00;100161.72;5073362;58;1145433;-75
2022/10/15 09:10:08;;;;;;;34.33;20.57;;;;;;;13.32;100.00;100162.66;5073119;58;1145481;-74
2022/10/15 09:15:17;;;;;;;31.17;20.53;;;;;;;13.35;100.00;100165.86;5114428;57;1145345;-75
2022/10/15 09:20:35;;;;;;;37.03;26.50;;;;;;;13.41;100.00;100167.11;5077027;57;1145235;-76
2022/10/15 09:25:45;;;;;;;42.53;24.50;;;;;;;13.48;100.00;100168.19;4991092;58;1145257;-74
2022/10/15 09:30:55;;;;;;;34.83;21.20;;;;;;;13.59;100.00;100169.84;4980240;59;1145273;-78
2022/10/15 09:36:40;;;;;;;29.03;18.30;;;;;;;13.68;100.00;100172.45;5019442;57;1145202;-77
2022/10/15 09:41:55;;;;;;;41.47;21.63;;;;;;;13.69;100.00;100165.31;5105495;57;1145371;-75
2022/10/15 09:47:00;;;;;;;37.03;21.60;;;;;;;13.73;100.00;100173.34;5195208;56;1145521;-75
2022/10/15 09:52:22;;;;;;;61.40;29.93;;;;;;;13.78;100.00;100173.71;5213809;56;1145086;-77
2022/10/15 09:57:34;;;;;;;31.40;20.43;;;;;;;13.85;100.00;100179.28;5198396;56;1143148;-77
2022/10/15 10:02:40;;;;;;;38.90;21.27;;;;;;;13.93;100.00;100178.03;5171941;56;1143262;-77
2022/10/15 10:07:46;;;;;;;35.63;19.20;;;;;;;13.99;100.00;100172.14;5181673;56;1143193;-75
2022/10/15 10:12:54;;;;;;;31.27;21.93;;;;;;;14.07;100.00;100174.38;5138560;57;1143147;-76
2022/10/15 10:18:05;;;;;;;24.45;17.23;;;;;;;14.22;100.00;100180.02;5139511;57;1143126;-75
2022/10/15 10:23:33;;;;;;;26.00;17.93;;;;;;;14.38;100.00;100179.34;5172021;56;1143136;-77
2022/10/15 10:28:54;;;;;;;28.67;18.67;;;;;;;14.53;100.00;100177.02;5145246;57;1143429;-77
2022/10/15 10:34:04;;;;;;;24.47;16.53;;;;;;;14.64;100.00;100180.80;5149447;57;1141201;-77
2022/10/15 10:39:28;;;;;;;24.50;16.77;;;;;;;14.76;100.00;100173.75;5157698;56;1145190;-78
2022/10/15 10:44:40;;;;;;;23.63;15.90;;;;;;;14.81;100.00;100183.94;5195098;56;1145223;-78
2022/10/15 10:49:57;;;;;;;27.37;19.33;;;;;;;14.87;100.00;100183.80;5210257;56;1145297;-75
2022/10/15 10:55:08;;;;;;;27.52;18.70;;;;;;;14.92;100.00;100182.36;5063568;58;1145280;-77
2022/10/15 11:00:30;;;;;;;32.47;18.30;;;;;;;15.05;100.00;100174.80;5242712;55;1145280;-76
2022/10/15 11:05:39;;;;;;;27.63;18.37;;;;;;;15.18;100.00;100170.38;5240877;55;1145146;-75
2022/10/15 11:11:01;;;;;;;26.20;18.80;;;;;;;15.29;100.00;100172.77;5236216;56;1144694;-76
2022/10/15 11:16:22;;;;;;;24.77;18.17;;;;;;;15.29;100.00;100179.42;5175052;55;1145362;-77
2022/10/15 11:21:51;;;;;;;29.07;20.83;;;;;;;15.33;100.00;100182.13;5206823;56;1145200;-75
2022/10/15 11:27:42;;;;;;;32.60;20.03;;;;;;;15.41;100.00;100174.69;5209506;56;1145217;-76
2022/10/15 11:32:58;;;;;;;28.17;17.10;;;;;;;15.44;100.00;100169.85;5205665;56;1143176;-75
2022/10/15 11:38:28;;;;;;;27.73;19.03;;;;;;;15.46;100.00;100173.70;5212680;56;1143218;-76
2022/10/15 11:44:04;;;;;;;26.63;18.10;;;;;;;15.52;100.00;100165.57;5176681;56;1143196;-75
2022/10/15 11:49:38;;;;;;;23.93;16.67;;;;;;;15.64;100.00;100168.32;5125779;57;1143301;-76
2022/10/15 11:54:49;;;;;;;19.97;14.53;;;;;;;15.75;100.00;100161.36;5189031;56;1145160;-76
2022/10/15 11:59:59;;;;;;;27.33;17.00;;;;;;;15.88;100.00;100165.77;5163613;56;1145190;-76
2022/10/15 12:05:26;;;;;;;18.83;13.40;;;;;;;15.96;100.00;100159.61;5215669;56;1145242;-75
2022/10/15 12:10:45;;;;;;;18.30;12.60;;;;;;;16.09;100.00;100169.31;5216074;55;1145256;-74
2022/10/15 12:16:16;;;;;;;24.43;15.43;;;;;;;16.12;100.00;100181.83;5233479;55;1145281;-76
2022/10/15 12:21:57;;;;;;;22.63;13.77;;;;;;;16.07;100.00;100169.97;5137805;57;1145192;-76
2022/10/15 12:27:24;;;;;;;24.37;16.27;;;;;;;16.01;100.00;100171.47;5097134;56;1145256;-76
2022/10/15 12:32:47;;;;;;;24.87;15.93;;;;;;;16.06;100.00;100169.13;4984241;58;1145217;-76
2022/10/15 12:37:53;;;;;;;23.60;14.87;;;;;;;16.06;100.00;100169.13;5161960;56;1143194;-76
2022/10/15 12:43:06;;;;;;;41.00;20.93;;;;;;;16.14;100.00;100165.16;5177121;56;1143403;-77
2022/10/15 12:48:20;;;;;;;28.57;16.73;;;;;;;16.22;100.00;100168.33;5227358;56;1143108;-77
2022/10/15 12:53:31;;;;;;;36.77;20.20;;;;;;;16.24;100.00;100161.50;5212694;56;1143213;-76
2022/10/15 12:58:40;;;;;;;25.33;17.60;;;;;;;16.28;100.00;100160.19;5104141;57;1143121;-75
2022/10/15 13:03:52;;;;;;;39.10;22.17;;;;;;;16.25;100.00;100166.68;5164222;56;1143178;-77
2022/10/15 13:09:11;;;;;;;37.20;21.20;;;;;;;16.30;100.00;100156.36;5204353;56;1143072;-77
2022/10/15 13:14:30;;;;;;;40.83;24.73;;;;;;;16.36;100.00;100146.34;5147100;55;1143392;-75
2022/10/15 13:19:49;;;;;;;33.10;22.27;;;;;;;16.43;100.00;100143.36;5147759;56;1141270;-74
2022/10/15 13:24:57;;;;;;;24.23;18.25;;;;;;;16.53;100.00;100152.02;5136051;56;1145196;-75
2022/10/15 13:30:09;;;;;;;28.97;19.63;;;;;;;16.58;100.00;100154.70;5177895;56;1145162;-74
2022/10/15 13:35:25;;;;;;;28.67;18.20;;;;;;;16.54;100.00;100159.53;5179619;56;1145200;-74
2022/10/15 13:40:31;;;;;;;20.90;14.27;;;;;;;16.52;100.00;100158.86;5212655;55;1145288;-74
2022/10/15 13:45:37;;;;;;;21.17;12.77;;;;;;;16.50;100.00;100153.69;5190904;55;1145340;-73
2022/10/15 13:50:48;;;;;;;25.23;14.97;;;;;;;16.46;100.00;100147.53;5239840;55;1145136;-76
2022/10/15 13:55:58;;;;;;;26.50;15.90;;;;;;;16.43;100.00;100150.53;5200969;55;1145142;-75
2022/10/15 14:01:24;;;;;;;37.97;23.13;;;;;;;16.43;100.00;100156.70;5240921;55;1145276;-74
2022/10/15 14:06:34;;;;;;;23.13;16.43;;;;;;;16.44;100.00;100153.03;5156835;55;1145218;-75
2022/10/15 14:11:40;;;;;;;26.70;18.60;;;;;;;16.42;100.00;100151.52;5192811;55;1145306;-75
2022/10/15 14:16:48;;;;;;;18.33;14.63;;;;;;;16.39;100.00;100160.69;5198512;55;1145232;-73
2022/10/15 14:21:53;;;;;;;17.73;13.70;;;;;;;16.41;100.00;100168.04;5256041;55;1145440;-78
2022/10/15 14:27:07;;;;;;;22.08;12.82;;;;;;;16.43;100.00;100165.20;5295404;55;1145230;-76
2022/10/15 14:32:25;;;;;;;19.47;10.73;;;;;;;16.41;100.00;100172.05;5286815;55;1145387;-77
2022/10/15 14:37:41;;;;;;;14.57;9.70;;;;;;;16.44;100.00;100163.71;5241965;55;1145130;-76
2022/10/15 14:43:06;;;;;;;17.53;12.03;;;;;;;16.49;100.00;100161.39;5247265;55;1143140;-76
2022/10/15 14:48:28;;;;;;;19.67;13.50;;;;;;;16.52;100.00;100162.87;5234754;55;1145525;-76
2022/10/15 14:53:38;;;;;;;21.57;13.87;;;;;;;16.50;100.00;100171.54;5239642;55;1143258;-75
2022/10/15 14:58:55;;;;;;;20.80;14.50;;;;;;;16.43;100.00;100178.05;5236343;55;1143159;-76
2022/10/15 15:04:01;;;;;;;18.30;13.83;;;;;;;16.41;100.00;100180.05;5233945;55;1143202;-78
2022/10/15 15:09:08;;;;;;;26.83;18.97;;;;;;;16.33;100.00;100178.72;5235542;55;1143082;-79
2022/10/15 15:14:24;;;;;;;34.53;21.60;;;;;;;16.28;100.00;100176.20;5237805;55;1143131;-79
2022/10/15 15:19:30;;;;;;;33.07;20.83;;;;;;;16.22;100.00;100178.17;5244374;55;1143173;-74
2022/10/15 15:24:36;;;;;;;37.23;26.80;;;;;;;16.18;100.00;100183.02;5246202;55;1143139;-75
2022/10/15 15:29:41;;;;;;;38.70;25.56;;;;;;;16.18;100.00;100178.52;5243200;55;1143094;-66
2022/10/15 15:34:49;;;;;;;36.17;25.13;;;;;;;16.17;100.00;100184.86;5240968;55;1143168;-68
2022/10/15 15:39:55;;;;;;;32.97;24.10;;;;;;;16.14;100.00;100185.67;5247193;55;1143203;-68
2022/10/15 15:45:00;;;;;;;28.93;18.70;;;;;;;16.10;100.00;100179.82;5237440;55;1141123;-77
2022/10/15 15:50:07;;;;;;;26.70;15.87;;;;;;;16.07;100.00;100184.14;5245870;55;1141044;-74
2022/10/15 15:55:15;;;;;;;25.53;17.33;;;;;;;16.03;100.00;100192.16;5242743;55;1145172;-78
2022/10/15 16:00:22;;;;;;;37.50;27.80;;;;;;;16.02;100.00;100201.65;5055150;57;1145270;-74
2022/10/15 16:05:27;;;;;;;70.17;47.85;;;;;;;15.99;100.00;100205.97;5288585;55;1145177;-74
2022/10/15 16:10:33;;;;;;;33.77;23.67;;;;;;;15.94;100.00;100210.44;5218836;56;1145220;-74
2022/10/15 16:15:39;;;;;;;38.27;20.43;;;;;;;15.91;100.00;100221.42;5270022;55;1145248;-75
2022/10/15 16:20:45;;;;;;;44.40;26.93;;;;;;;15.89;100.00;100219.94;5252561;55;1145565;-75
2022/10/15 16:25:53;;;;;;;47.63;29.73;;;;;;;15.94;100.00;100223.78;5256772;55;1145200;-76
2022/10/15 16:31:16;;;;;;;61.50;34.23;;;;;;;15.98;100.00;100222.47;5246572;55;1145127;-74
2022/10/15 16:36:21;;;;;;;41.27;26.00;;;;;;;15.97;100.00;100228.80;5245739;55;1145189;-76
2022/10/15 16:41:27;;;;;;;60.97;34.07;;;;;;;15.96;100.00;100236.95;5232592;55;1145276;-73
2022/10/15 16:46:33;;;;;;;118.07;68.10;;;;;;;15.94;100.00;100241.61;5219519;55;1145217;-74
2022/10/15 16:51:39;;;;;;;96.73;58.60;;;;;;;15.96;100.00;100243.13;5237869;55;1147586;-75
2022/10/15 16:56:45;;;;;;;87.77;53.77;;;;;;;15.95;100.00;100244.63;5269046;55;1145509;-75
2022/10/15 17:01:50;;;;;;;81.57;52.53;;;;;;;15.92;100.00;100249.77;5238336;55;1145456;-74
2022/10/15 17:06:56;;;;;;;50.17;24.80;;;;;;;15.93;100.00;100253.27;5261542;55;1145500;-75
2022/10/15 17:12:02;;;;;;;38.53;23.67;;;;;;;15.89;100.00;100257.28;5231898;55;1145281;-73
2022/10/15 17:17:07;;;;;;;29.00;18.70;;;;;;;15.85;100.00;100260.75;5222986;55;1145253;-75
2022/10/15 17:22:15;;;;;;;26.60;18.07;;;;;;;15.83;100.00;100268.08;5271060;55;1145323;-76
2022/10/15 17:27:20;;;;;;;30.13;18.20;;;;;;;15.78;100.00;100273.03;5265509;55;1145214;-74
2022/10/15 17:32:26;;;;;;;30.07;18.63;;;;;;;15.73;100.00;100278.03;5253914;55;1145232;-78
2022/10/15 17:37:32;;;;;;;256.30;110.27;;;;;;;15.65;100.00;100285.96;5282173;55;1145222;-73
2022/10/15 17:42:41;;;;;;;47.23;28.50;;;;;;;15.59;100.00;100286.08;5269144;55;1149246;-79
2022/10/15 17:47:46;;;;;;;56.33;37.33;;;;;;;15.49;100.00;100291.98;5240107;55;1145187;-76
2022/10/15 17:52:51;;;;;;;67.53;42.67;;;;;;;15.45;100.00;100290.63;5193634;55;1145296;-76
2022/10/15 17:57:57;;;;;;;94.47;56.87;;;;;;;15.48;100.00;100298.31;5206954;56;1145264;-72
2022/10/15 18:03:03;;;;;;;140.57;73.83;;;;;;;15.49;100.00;100299.98;5080749;57;1145443;-72
2022/10/15 18:08:09;;;;;;;159.93;80.10;;;;;;;15.48;100.00;100300.97;5165746;56;1147334;-73
2022/10/15 18:13:14;;;;;;;88.53;50.20;;;;;;;15.49;100.00;100300.83;5173344;56;1147560;-76
2022/10/15 18:18:20;;;;;;;56.23;31.27;;;;;;;15.51;100.00;100306.50;5221717;56;1145270;-74
2022/10/15 18:23:27;;;;;;;61.17;32.33;;;;;;;15.53;100.00;100307.19;5178553;56;1145165;-75
2022/10/15 18:28:35;;;;;;;27.73;17.33;;;;;;;15.51;100.00;100311.83;5173782;56;1145128;-72
2022/10/15 18:33:43;;;;;;;81.30;37.73;;;;;;;15.46;100.00;100322.45;5156369;56;1145621;-70
2022/10/15 18:38:51;;;;;;;71.93;38.13;;;;;;;15.48;100.00;100324.47;5174964;57;1145344;-76
2022/10/15 18:44:02;;;;;;;61.20;29.03;;;;;;;15.47;100.00;100320.62;5207796;56;1145096;-76
2022/10/15 18:49:10;;;;;;;33.47;18.70;;;;;;;15.47;100.00;100317.96;5242062;56;1143165;-75
2022/10/15 18:54:17;;;;;;;34.27;21.17;;;;;;;15.47;100.00;100321.95;5235600;56;1143326;-76
2022/10/15 18:59:24;;;;;;;29.00;14.33;;;;;;;15.45;100.00;100332.77;5208541;56;1143150;-76
2022/10/15 19:04:30;;;;;;;31.13;15.27;;;;;;;15.49;100.00;100342.63;5173027;56;1143021;-75
2022/10/15 19:09:36;;;;;;;19.57;11.33;;;;;;;15.43;100.00;100343.23;5203854;56;1143136;-75
2022/10/15 19:14:43;;;;;;;21.30;11.33;;;;;;;15.38;100.00;100334.89;5189016;56;1143191;-76
2022/10/15 19:19:50;;;;;;;34.43;18.70;;;;;;;15.35;100.00;100345.84;5241354;56;1143287;-77
2022/10/15 19:24:56;;;;;;;19.93;12.53;;;;;;;15.33;100.00;100339.84;5242565;56;1143129;-78
2022/10/15 19:30:02;;;;;;;20.13;11.93;;;;;;;15.32;100.00;100343.48;5249603;55;1143122;-78
2022/10/15 19:35:09;;;;;;;22.85;12.68;;;;;;;15.26;100.00;100351.62;5222381;55;1143187;-77
2022/10/15 19:40:14;;;;;;;19.63;12.07;;;;;;;15.24;100.00;100356.75;5207058;56;1143237;-77
2022/10/15 19:45:22;;;;;;;23.40;13.87;;;;;;;15.25;100.00;100357.94;5167280;56;1143416;-75
2022/10/15 19:50:28;;;;;;;19.13;11.23;;;;;;;15.22;100.00;100356.91;5214194;56;1143325;-76
2022/10/15 19:55:36;;;;;;;18.57;11.77;;;;;;;15.22;100.00;100360.90;5213841;56;1143393;-76
2022/10/15 20:00:41;;;;;;;17.33;11.50;;;;;;;15.21;100.00;100366.37;5208216;55;1143420;-66
2022/10/15 20:05:47;;;;;;;14.83;9.23;;;;;;;15.20;100.00;100361.55;5190033;56;1143112;-70
2022/10/15 20:10:53;;;;;;;18.53;11.90;;;;;;;15.23;100.00;100363.06;5218301;55;1141422;-66
2022/10/15 20:16:08;;;;;;;24.37;10.57;;;;;;;15.25;100.00;100358.43;5220798;56;1141402;-66
2022/10/15 20:21:16;;;;;;;14.07;8.40;;;;;;;15.26;100.00;100366.27;5255922;55;1145449;-69
2022/10/15 20:26:26;;;;;;;11.27;7.80;;;;;;;15.26;100.00;100366.27;5195306;56;1143041;-69
2022/10/15 20:31:33;;;;;;;18.03;10.00;;;;;;;15.26;100.00;100372.09;5135313;56;1143188;-68
2022/10/15 20:36:40;;;;;;;14.60;10.47;;;;;;;15.25;100.00;100378.41;5100081;57;1145214;-67
2022/10/15 20:41:46;;;;;;;15.60;10.30;;;;;;;15.21;100.00;100383.20;5202485;55;1145186;-67
2022/10/15 20:46:57;;;;;;;18.57;11.57;;;;;;;15.20;100.00;100386.85;5141948;56;1145267;-66
2022/10/15 20:52:05;;;;;;;15.97;9.43;;;;;;;15.20;100.00;100387.34;5177650;56;1145180;-67
2022/10/15 20:57:11;;;;;;;13.57;9.30;;;;;;;15.18;100.00;100386.16;5113790;56;1143163;-71
2022/10/15 21:02:17;;;;;;;21.77;12.87;;;;;;;15.16;100.00;100386.80;5216376;56;1142675;-70
2022/10/15 21:07:23;;;;;;;17.63;12.13;;;;;;;15.12;100.00;100392.92;5078938;57;1145229;-68
2022/10/15 21:12:29;;;;;;;19.03;12.57;;;;;;;15.05;100.00;100398.53;5175953;55;1145696;-69
2022/10/15 21:17:35;;;;;;;20.00;13.13;;;;;;;14.99;100.00;100393.79;5242406;55;1145157;-67
2022/10/15 21:22:41;;;;;;;20.13;12.57;;;;;;;14.96;100.00;100403.93;5216221;56;1145228;-70
2022/10/15 21:27:47;;;;;;;18.73;13.17;;;;;;;14.94;100.00;100405.90;5216144;56;1145201;-69
2022/10/15 21:32:52;;;;;;;18.40;13.70;;;;;;;14.90;100.00;100402.69;5216182;56;1145204;-66
2022/10/15 21:37:58;;;;;;;26.17;15.10;;;;;;;14.83;100.00;100404.26;5215998;56;1145245;-67
2022/10/15 21:43:04;;;;;;;20.93;14.97;;;;;;;14.77;100.00;100420.36;5216314;56;1145221;-67
2022/10/15 21:48:10;;;;;;;24.73;15.87;;;;;;;14.73;100.00;100427.45;5216461;56;1145709;-67
2022/10/15 21:53:16;;;;;;;26.07;17.03;;;;;;;14.66;100.00;100439.69;5164413;55;1145187;-67
2022/10/15 21:58:22;;;;;;;24.53;17.40;;;;;;;14.58;100.00;100450.21;5177117;55;1145202;-69
2022/10/15 22:03:28;;;;;;;28.67;19.27;;;;;;;14.53;100.00;100473.75;5160068;56;1145194;-71
2022/10/15 22:08:34;;;;;;;43.53;30.17;;;;;;;14.47;100.00;100463.70;5184322;56;1145434;-69
2022/10/15 22:13:43;;;;;;;45.77;28.50;;;;;;;14.48;100.00;100460.06;5177258;56;1145227;-64
2022/10/15 22:18:48;;;;;;;43.17;26.27;;;;;;;14.46;100.00;100459.37;5205821;56;1145519;-65
2022/10/15 22:23:58;;;;;;;30.60;20.00;;;;;;;14.38;100.00;100461.38;5228533;56;1145269;-65
2022/10/15 22:29:08;;;;;;;28.60;19.33;;;;;;;14.29;100.00;100461.77;5141112;56;1145496;-69
2022/10/15 22:34:14;;;;;;;29.30;20.07;;;;;;;14.27;100.00;100458.41;5047638;57;1145306;-70
2022/10/15 22:39:20;;;;;;;24.50;17.27;;;;;;;14.23;100.00;100466.81;5021187;57;1145498;-66
2022/10/15 22:44:26;;;;;;;24.87;18.27;;;;;;;14.18;100.00;100477.90;5039946;57;1145292;-71